createdAt,value
2023-02-21T00:00:06.233Z,70.79
2023-02-21T00:02:59.050Z,71.13
2023-02-21T00:05:46.086Z,70.83
2023-02-21T00:08:32.445Z,70.09
2023-02-21T00:11:18.790Z,70.17
2023-02-21T00:14:05.275Z,69.90
2023-02-21T00:16:51.762Z,69.94
2023-02-21T00:19:38.246Z,69.89
2023-02-21T00:22:24.741Z,70.20
2023-02-21T00:25:11.180Z,70.33
2023-02-21T00:27:57.746Z,69.95
2023-02-21T00:30:44.873Z,70.39
2023-02-21T00:33:31.709Z,70.07
2023-02-21T00:36:18.130Z,69.81
2023-02-21T00:39:05.037Z,69.63
2023-02-21T00:41:51.540Z,69.32
2023-02-21T00:44:38.159Z,69.51
2023-02-21T00:47:24.415Z,69.41
2023-02-21T00:50:12.343Z,69.59
2023-02-21T00:52:58.368Z,69.98
2023-02-21T00:55:44.778Z,69.77
2023-02-21T00:58:31.455Z,69.78
2023-02-21T01:01:18.093Z,69.33
2023-02-21T01:04:04.810Z,69.74
2023-02-21T01:06:51.239Z,70.05
2023-02-21T01:09:37.611Z,69.66
2023-02-21T01:12:24.714Z,69.48
2023-02-21T01:15:11.266Z,70.76
2023-02-21T01:17:57.554Z,70.47
2023-02-21T01:20:43.809Z,69.85
2023-02-21T01:23:30.370Z,70.38
2023-02-21T01:26:16.460Z,69.91
2023-02-21T01:29:03.115Z,70.01
2023-02-21T01:31:50.664Z,70.21
2023-02-21T01:34:36.997Z,70.73
2023-02-21T01:37:23.053Z,70.39
2023-02-21T01:40:10.932Z,70.27
2023-02-21T01:42:57.903Z,70.35
2023-02-21T01:46:17.864Z,69.52
2023-02-21T01:49:06.094Z,69.89
2023-02-21T01:51:56.542Z,69.83
2023-02-21T01:54:50.754Z,69.65
2023-02-21T01:57:38.956Z,69.58
2023-02-21T02:00:28.505Z,69.77
2023-02-21T02:03:28.442Z,69.49
2023-02-21T02:06:18.057Z,69.79
2023-02-21T02:09:05.127Z,69.73
2023-02-21T02:12:00.159Z,68.91
2023-02-21T02:14:52.530Z,68.92
2023-02-21T02:17:42.027Z,68.44
2023-02-21T02:20:45.266Z,69.42
2023-02-21T02:23:31.505Z,69.02
2023-02-21T02:26:50.391Z,69.19
2023-02-21T02:30:02.847Z,68.59
2023-02-21T02:32:46.396Z,68.53
2023-02-21T02:35:30.459Z,68.81
2023-02-21T02:38:28.138Z,68.19
2023-02-21T02:41:04.768Z,68.27
2023-02-21T02:43:38.838Z,68.17
2023-02-21T02:46:20.395Z,68.22
2023-02-21T02:48:54.107Z,68.07
2023-02-21T02:51:22.646Z,68.87
2023-02-21T02:53:50.376Z,68.73
2023-02-21T02:56:18.007Z,68.99
2023-02-21T02:58:51.417Z,68.82
2023-02-21T03:01:26.269Z,68.55
2023-02-21T03:04:24.698Z,68.24
2023-02-21T03:07:07.848Z,68.09
2023-02-21T03:09:55.562Z,68.68
2023-02-21T03:12:49.566Z,67.76
2023-02-21T03:15:19.471Z,68.44
2023-02-21T03:17:57.156Z,67.91
2023-02-21T03:20:28.482Z,68.42
2023-02-21T03:22:58.474Z,68.49
2023-02-21T03:25:29.334Z,68.07
2023-02-21T03:28:00.638Z,67.97
2023-02-21T03:30:30.537Z,68.40
2023-02-21T03:32:58.780Z,67.48
2023-02-21T03:35:30.199Z,67.54
2023-02-21T03:37:59.005Z,67.65
2023-02-21T03:40:29.928Z,67.55
2023-02-21T03:42:59.918Z,67.57
2023-02-21T03:45:28.121Z,67.15
2023-02-21T03:47:57.045Z,67.55
2023-02-21T03:50:25.373Z,67.33
2023-02-21T03:52:53.532Z,67.36
2023-02-21T03:55:22.274Z,67.51
2023-02-21T03:57:50.430Z,67.47
2023-02-21T04:00:20.308Z,67.56
2023-02-21T04:02:49.909Z,67.95
2023-02-21T04:05:18.556Z,67.91
2023-02-21T04:07:47.739Z,67.85
2023-02-21T04:10:16.739Z,68.01
2023-02-21T04:12:44.648Z,67.37
2023-02-21T04:15:12.337Z,66.83
2023-02-21T04:17:40.585Z,66.88
2023-02-21T04:20:10.726Z,66.78
2023-02-21T04:22:45.754Z,66.33
2023-02-21T04:25:16.078Z,65.48
2023-02-21T04:27:44.179Z,65.69
2023-02-21T04:30:12.527Z,64.87
2023-02-21T04:32:41.997Z,65.22
2023-02-21T04:35:10.026Z,65.34
2023-02-21T04:37:37.856Z,64.75
2023-02-21T04:40:06.397Z,64.91
2023-02-21T04:42:37.442Z,65.68
2023-02-21T04:45:05.731Z,64.87
2023-02-21T04:47:33.433Z,65.00
2023-02-21T04:50:01.068Z,64.97
2023-02-21T04:52:29.173Z,65.16
2023-02-21T04:54:56.729Z,64.16
2023-02-21T04:57:24.567Z,64.46
2023-02-21T04:59:58.125Z,64.76
2023-02-21T05:02:27.320Z,64.81
2023-02-21T05:04:55.308Z,64.48
2023-02-21T05:07:22.996Z,64.73
2023-02-21T05:09:51.990Z,64.85
2023-02-21T05:12:19.835Z,64.76
2023-02-21T05:14:47.523Z,64.56
2023-02-21T05:17:15.670Z,64.56
2023-02-21T05:19:43.628Z,65.30
2023-02-21T05:22:11.363Z,65.14
2023-02-21T05:24:46.398Z,64.95
2023-02-21T05:27:15.609Z,64.65
2023-02-21T05:29:52.534Z,65.04
2023-02-21T05:32:21.957Z,65.13
2023-02-21T05:34:49.730Z,65.36
2023-02-21T05:37:21.248Z,65.14
2023-02-21T05:39:51.905Z,65.27
2023-02-21T05:42:19.464Z,65.29
2023-02-21T05:44:47.861Z,65.29
2023-02-21T05:47:16.441Z,65.00
2023-02-21T05:49:45.589Z,65.44
2023-02-21T05:52:15.736Z,65.29
2023-02-21T05:54:44.702Z,65.15
2023-02-21T05:57:12.380Z,65.58
2023-02-21T05:59:41.092Z,64.83
2023-02-21T06:02:08.993Z,64.96
2023-02-21T06:04:36.921Z,64.89
2023-02-21T06:07:04.528Z,64.89
2023-02-21T06:09:32.164Z,65.06
2023-02-21T06:12:00.455Z,64.96
2023-02-21T06:14:28.088Z,64.90
2023-02-21T06:16:55.594Z,64.49
2023-02-21T06:19:23.615Z,64.60
2023-02-21T06:21:51.259Z,64.29
2023-02-21T06:24:18.986Z,64.60
2023-02-21T06:26:49.735Z,65.12
2023-02-21T06:29:17.417Z,64.74
2023-02-21T06:31:45.060Z,64.85
2023-02-21T06:34:13.060Z,64.34
2023-02-21T06:36:40.735Z,64.34
2023-02-21T06:39:10.646Z,64.41
2023-02-21T06:41:38.670Z,63.82
2023-02-21T06:44:06.294Z,63.03
2023-02-21T06:46:36.421Z,63.53
2023-02-21T06:49:05.452Z,62.80
2023-02-21T06:51:37.846Z,62.22
2023-02-21T06:54:08.010Z,61.98
2023-02-21T06:56:36.206Z,61.02
2023-02-21T06:59:04.261Z,60.84
2023-02-21T07:01:32.492Z,60.80
2023-02-21T07:04:00.285Z,60.27
2023-02-21T07:06:29.818Z,59.93
2023-02-21T07:08:57.998Z,60.18
2023-02-21T07:11:25.806Z,59.96
2023-02-21T07:13:56.820Z,59.89
2023-02-21T07:16:25.391Z,59.28
2023-02-21T07:18:53.158Z,59.11
2023-02-21T07:21:22.101Z,58.63
2023-02-21T07:23:50.279Z,58.77
2023-02-21T07:26:17.935Z,58.36
2023-02-21T07:28:48.589Z,58.18
2023-02-21T07:31:19.471Z,57.90
2023-02-21T07:33:47.607Z,57.53
2023-02-21T07:36:15.637Z,57.13
2023-02-21T07:38:43.683Z,57.12
2023-02-21T07:41:11.550Z,57.23
2023-02-21T07:43:39.346Z,57.37
2023-02-21T07:46:11.998Z,57.48
2023-02-21T07:48:39.899Z,56.99
2023-02-21T07:51:08.875Z,56.40
2023-02-21T07:53:36.876Z,56.40
2023-02-21T07:56:05.284Z,55.92
2023-02-21T07:58:37.345Z,55.88
2023-02-21T08:01:06.590Z,55.77
2023-02-21T08:03:34.906Z,55.95
2023-02-21T08:06:02.487Z,55.82
2023-02-21T08:08:30.332Z,55.26
2023-02-21T08:10:58.378Z,54.88
2023-02-21T08:13:26.018Z,54.51
2023-02-21T08:15:53.617Z,54.36
2023-02-21T08:18:24.659Z,53.63
2023-02-21T08:20:52.924Z,53.47
2023-02-21T08:23:21.656Z,53.55
2023-02-21T08:25:49.678Z,52.97
2023-02-21T08:28:17.993Z,52.32
2023-02-21T08:30:46.014Z,52.74
2023-02-21T08:33:13.654Z,52.88
2023-02-21T08:35:41.312Z,52.74
2023-02-21T08:38:10.578Z,52.74
2023-02-21T08:40:38.306Z,52.90
2023-02-21T08:43:06.071Z,52.51
2023-02-21T08:45:34.021Z,53.14
2023-02-21T08:48:02.050Z,52.77
2023-02-21T08:50:30.124Z,52.32
2023-02-21T08:52:58.081Z,52.44
2023-02-21T08:55:25.740Z,51.58
2023-02-21T08:57:54.955Z,52.05
2023-02-21T09:00:25.168Z,51.49
2023-02-21T09:02:52.928Z,51.74
2023-02-21T09:05:26.951Z,51.56
2023-02-21T09:07:59.122Z,51.70
2023-02-21T09:10:29.040Z,51.39
2023-02-21T09:12:57.452Z,51.40
2023-02-21T09:15:25.055Z,50.40
2023-02-21T09:17:54.657Z,50.13
2023-02-21T09:20:26.347Z,50.52
2023-02-21T09:22:54.582Z,49.84
2023-02-21T09:25:24.700Z,49.89
2023-02-21T09:27:54.576Z,49.85
2023-02-21T09:30:26.834Z,49.83
2023-02-21T09:32:55.469Z,49.54
2023-02-21T09:35:23.880Z,49.12
2023-02-21T09:37:51.768Z,49.08
2023-02-21T09:40:45.739Z,48.76
2023-02-21T09:43:43.211Z,48.85
2023-02-21T09:46:20.480Z,48.73
2023-02-21T09:48:48.833Z,48.74
2023-02-21T09:51:17.281Z,48.58
2023-02-21T09:53:48.420Z,48.58
2023-02-21T09:56:25.488Z,49.08
2023-02-21T09:58:53.071Z,48.53
2023-02-21T10:01:23.974Z,48.66
2023-02-21T10:04:04.968Z,48.91
2023-02-21T10:07:00.051Z,48.31
2023-02-21T10:09:27.947Z,48.10
2023-02-21T10:12:10.231Z,47.82
2023-02-21T10:15:15.828Z,47.80
2023-02-21T10:18:19.294Z,47.33
2023-02-21T10:21:01.639Z,47.51
2023-02-21T10:24:04.754Z,47.65
2023-02-21T10:26:41.239Z,47.95
2023-02-21T10:29:23.628Z,47.36
2023-02-21T10:32:00.041Z,48.71
2023-02-21T10:34:29.854Z,47.05
2023-02-21T10:37:11.560Z,47.01
2023-02-21T10:39:46.389Z,46.94
2023-02-21T10:42:26.529Z,46.67
2023-02-21T10:44:56.060Z,46.78
2023-02-21T10:47:45.193Z,46.71
2023-02-21T10:50:15.207Z,46.88
2023-02-21T10:52:52.475Z,46.36
2023-02-21T10:55:32.765Z,45.80
2023-02-21T10:58:10.423Z,45.49
2023-02-21T11:00:47.982Z,46.30
2023-02-21T11:03:19.021Z,45.42
2023-02-21T11:05:57.744Z,45.38
2023-02-21T11:08:40.795Z,45.09
2023-02-21T11:11:09.666Z,45.52
2023-02-21T11:13:38.038Z,45.97
2023-02-21T11:16:15.817Z,45.96
2023-02-21T11:18:44.739Z,46.17
2023-02-21T11:21:16.367Z,46.47
2023-02-21T11:23:49.802Z,46.42
2023-02-21T11:26:17.554Z,46.24
2023-02-21T11:28:47.446Z,46.55
2023-02-21T11:31:27.117Z,46.51
2023-02-21T11:34:01.836Z,46.60
2023-02-21T11:36:39.025Z,46.52
2023-02-21T11:39:28.096Z,46.83
2023-02-21T11:41:58.488Z,47.07
2023-02-21T11:44:35.093Z,47.34
2023-02-21T11:47:29.236Z,47.58
2023-02-21T11:50:10.472Z,47.73
2023-02-21T11:52:49.954Z,48.11
2023-02-21T11:55:26.375Z,48.43
2023-02-21T11:58:22.468Z,48.24
2023-02-21T12:01:06.243Z,47.45
2023-02-21T12:03:59.676Z,47.66
2023-02-21T12:06:33.197Z,47.50
2023-02-21T12:09:44.703Z,47.83
2023-02-21T12:12:21.349Z,47.78
2023-02-21T12:14:58.227Z,47.30
2023-02-21T12:18:05.847Z,47.45
2023-02-21T12:20:49.555Z,47.81
2023-02-21T12:23:45.054Z,48.15
2023-02-21T12:26:28.801Z,48.63
2023-02-21T12:29:02.213Z,48.45
2023-02-21T12:31:59.104Z,48.41
2023-02-21T12:34:34.030Z,48.89
2023-02-21T12:37:07.414Z,48.73
2023-02-21T12:40:05.130Z,48.78
2023-02-21T12:43:14.072Z,48.94
2023-02-21T12:45:50.086Z,48.71
2023-02-21T12:49:01.273Z,48.79
2023-02-21T12:51:35.649Z,48.58
2023-02-21T12:54:09.809Z,48.32
2023-02-21T12:57:02.022Z,48.03
2023-02-21T13:00:00.930Z,48.42
2023-02-21T13:02:42.936Z,48.40
2023-02-21T13:05:18.616Z,48.44
2023-02-21T13:07:51.896Z,48.44
2023-02-21T13:10:26.553Z,47.82
2023-02-21T13:13:02.762Z,46.49
2023-02-21T13:15:31.540Z,46.13
2023-02-21T13:18:11.180Z,45.72
2023-02-21T13:20:47.880Z,45.83
2023-02-21T13:23:51.666Z,45.64
2023-02-21T13:26:25.207Z,45.59
2023-02-21T13:28:57.887Z,45.68
2023-02-21T13:31:38.278Z,46.22
2023-02-21T13:34:09.022Z,46.03
2023-02-21T13:36:40.098Z,45.87
2023-02-21T13:39:17.425Z,46.03
2023-02-21T13:41:52.380Z,46.28
2023-02-21T13:44:31.624Z,46.09
2023-02-21T13:47:10.951Z,45.91
2023-02-21T13:49:55.082Z,45.80
2023-02-21T13:52:29.020Z,45.98
2023-02-21T13:55:09.032Z,46.17
2023-02-21T13:57:57.989Z,46.00
2023-02-21T14:00:25.918Z,46.39
2023-02-21T14:02:56.886Z,46.55
2023-02-21T14:05:25.612Z,46.17
2023-02-21T14:07:54.673Z,46.30
2023-02-21T14:10:32.746Z,46.67
2023-02-21T14:13:05.504Z,47.03
2023-02-21T14:15:43.297Z,47.21
2023-02-21T14:18:18.790Z,47.12
2023-02-21T14:20:50.033Z,47.29
2023-02-21T14:23:20.672Z,46.85
2023-02-21T14:25:58.401Z,47.17
2023-02-21T14:28:49.186Z,47.38
2023-02-21T14:31:46.056Z,47.70
2023-02-21T14:34:17.949Z,47.50
2023-02-21T14:36:46.822Z,47.83
2023-02-21T14:39:15.465Z,47.80
2023-02-21T14:41:43.071Z,48.05
2023-02-21T14:44:27.454Z,48.38
2023-02-21T14:47:25.677Z,48.28
2023-02-21T14:50:24.486Z,48.10
2023-02-21T14:53:46.827Z,48.83
2023-02-21T14:56:36.231Z,48.65
2023-02-21T14:59:31.454Z,49.44
2023-02-21T15:02:32.601Z,49.71
2023-02-21T15:05:12.570Z,50.00
2023-02-21T15:08:26.702Z,50.31
2023-02-21T15:11:02.895Z,50.33
2023-02-21T15:13:33.393Z,50.97
2023-02-21T15:16:08.706Z,51.16
2023-02-21T15:18:37.470Z,51.49
2023-02-21T15:21:23.695Z,51.49
2023-02-21T15:24:23.101Z,51.80
2023-02-21T15:27:11.873Z,51.91
2023-02-21T15:29:41.358Z,52.28
2023-02-21T15:32:12.624Z,52.76
2023-02-21T15:34:43.272Z,52.93
2023-02-21T15:37:20.733Z,52.93
2023-02-21T15:40:00.720Z,53.37
2023-02-21T15:42:32.917Z,53.18
2023-02-21T15:45:04.735Z,53.55
2023-02-21T15:47:34.845Z,54.03
2023-02-21T15:50:18.659Z,53.72
2023-02-21T15:52:51.484Z,54.14
2023-02-21T15:55:19.410Z,54.81
2023-02-21T15:58:02.000Z,55.23
2023-02-21T16:00:34.110Z,55.29
2023-02-21T16:03:29.941Z,55.89
2023-02-21T16:06:29.138Z,56.26
2023-02-21T16:09:01.841Z,56.61
2023-02-21T16:11:45.854Z,56.97
2023-02-21T16:14:43.005Z,57.22
2023-02-21T16:17:20.426Z,57.23
2023-02-21T16:19:53.945Z,57.71
2023-02-21T16:22:59.571Z,58.07
2023-02-21T16:25:27.988Z,58.28
2023-02-21T16:28:02.106Z,58.55
2023-02-21T16:30:32.080Z,58.73
2023-02-21T16:33:02.739Z,59.18
2023-02-21T16:35:32.044Z,59.36
2023-02-21T16:38:00.954Z,59.13
2023-02-21T16:40:33.531Z,59.01
2023-02-21T16:43:04.102Z,58.90
2023-02-21T16:45:32.539Z,58.72
2023-02-21T16:48:03.816Z,58.97
2023-02-21T16:50:37.855Z,58.68
2023-02-21T16:53:06.134Z,58.87
2023-02-21T16:55:34.093Z,58.71
2023-02-21T16:58:07.283Z,59.01
2023-02-21T17:00:39.915Z,58.52
2023-02-21T17:03:07.835Z,58.66
2023-02-21T17:05:36.109Z,58.78
2023-02-21T17:08:04.505Z,59.01
2023-02-21T17:10:33.293Z,59.41
2023-02-21T17:13:03.680Z,59.64
2023-02-21T17:15:32.219Z,59.80
2023-02-21T17:18:00.833Z,59.64
2023-02-21T17:20:29.906Z,60.00
2023-02-21T17:22:58.524Z,59.83
2023-02-21T17:25:27.354Z,59.58
2023-02-21T17:27:55.280Z,59.29
2023-02-21T17:30:25.148Z,59.55
2023-02-21T17:32:53.143Z,59.31
2023-02-21T17:35:22.542Z,58.94
2023-02-21T17:37:51.638Z,59.18
2023-02-21T17:40:21.969Z,59.18
2023-02-21T17:42:50.587Z,59.59
2023-02-21T17:45:21.973Z,59.72
2023-02-21T17:47:58.674Z,60.39
2023-02-21T17:50:26.612Z,60.55
2023-02-21T17:52:54.833Z,60.26
2023-02-21T17:55:26.081Z,60.57
2023-02-21T17:57:54.188Z,60.18
2023-02-21T18:00:26.799Z,60.73
2023-02-21T18:02:56.391Z,60.76
2023-02-21T18:05:24.372Z,61.00
2023-02-21T18:07:53.866Z,61.37
2023-02-21T18:10:24.852Z,61.81
2023-02-21T18:12:53.299Z,62.15
2023-02-21T18:15:23.534Z,62.38
2023-02-21T18:17:51.683Z,62.28
2023-02-21T18:20:19.919Z,62.14
2023-02-21T18:22:48.570Z,62.14
2023-02-21T18:25:18.132Z,62.45
2023-02-21T18:27:45.968Z,62.17
2023-02-21T18:30:14.202Z,62.35
2023-02-21T18:32:43.687Z,61.93
2023-02-21T18:35:12.079Z,61.84
2023-02-21T18:37:41.450Z,61.47
2023-02-21T18:40:11.902Z,61.11
2023-02-21T18:42:43.605Z,61.20
2023-02-21T18:45:12.401Z,61.41
2023-02-21T18:47:40.643Z,61.66
2023-02-21T18:50:10.477Z,62.08
2023-02-21T18:52:40.436Z,62.00
2023-02-21T18:55:08.419Z,62.32
2023-02-21T18:57:36.343Z,62.81
2023-02-21T19:00:07.171Z,63.19
2023-02-21T19:02:36.346Z,63.05
2023-02-21T19:05:04.592Z,63.08
2023-02-21T19:07:36.415Z,62.67
2023-02-21T19:10:07.004Z,62.51
2023-02-21T19:12:35.045Z,62.49
2023-02-21T19:15:03.636Z,62.32
2023-02-21T19:17:32.293Z,62.41
2023-02-21T19:20:06.134Z,61.76
2023-02-21T19:22:34.445Z,61.94
2023-02-21T19:25:02.611Z,61.88
2023-02-21T19:27:30.817Z,62.13
2023-02-21T19:29:59.494Z,61.94
2023-02-21T19:32:29.182Z,62.34
2023-02-21T19:34:57.001Z,62.20
2023-02-21T19:37:25.162Z,62.62
2023-02-21T19:39:55.429Z,62.71
2023-02-21T19:42:23.343Z,63.01
2023-02-21T19:44:51.797Z,63.50
2023-02-21T19:47:19.640Z,63.69
2023-02-21T19:49:48.565Z,64.33
2023-02-21T19:52:16.842Z,64.17
2023-02-21T19:54:46.899Z,64.04
2023-02-21T19:57:17.984Z,64.32
2023-02-21T19:59:49.564Z,64.25
2023-02-21T20:02:17.563Z,64.23
2023-02-21T20:04:48.124Z,64.23
2023-02-21T20:07:16.863Z,64.09
2023-02-21T20:09:47.181Z,64.41
2023-02-21T20:12:22.750Z,64.57
2023-02-21T20:14:53.674Z,64.51
2023-02-21T20:17:21.778Z,64.56
2023-02-21T20:19:50.475Z,64.74
2023-02-21T20:22:19.471Z,64.83
2023-02-21T20:24:47.765Z,65.01
2023-02-21T20:27:16.246Z,64.59
2023-02-21T20:29:46.216Z,64.61
2023-02-21T20:32:17.701Z,64.63
2023-02-21T20:34:45.649Z,64.70
2023-02-21T20:37:14.501Z,64.83
2023-02-21T20:39:44.195Z,65.19
2023-02-21T20:42:12.144Z,65.84
2023-02-21T20:44:40.207Z,65.71
2023-02-21T20:47:11.251Z,65.64
2023-02-21T20:49:42.211Z,65.95
2023-02-21T20:52:10.368Z,66.08
2023-02-21T20:54:38.421Z,66.12
2023-02-21T20:57:06.620Z,66.46
2023-02-21T20:59:37.601Z,66.62
2023-02-21T21:02:06.634Z,66.59
2023-02-21T21:04:38.558Z,66.17
2023-02-21T21:07:20.119Z,66.18
2023-02-21T21:09:49.802Z,66.43
2023-02-21T21:12:21.170Z,66.40
2023-02-21T21:14:51.036Z,66.75
2023-02-21T21:17:20.337Z,66.81
2023-02-21T21:19:49.481Z,66.80
2023-02-21T21:22:21.002Z,66.17
2023-02-21T21:24:50.127Z,65.93
2023-02-21T21:27:21.671Z,66.06
2023-02-21T21:29:50.012Z,65.88
2023-02-21T21:32:21.717Z,65.20
2023-02-21T21:34:58.310Z,64.91
2023-02-21T21:37:28.598Z,64.69
2023-02-21T21:39:56.981Z,64.42
2023-02-21T21:42:27.260Z,64.48
2023-02-21T21:44:56.884Z,64.36
2023-02-21T21:47:27.930Z,64.21
2023-02-21T21:49:56.024Z,64.40
2023-02-21T21:52:26.642Z,64.23
2023-02-21T21:54:54.440Z,64.70
2023-02-21T21:57:28.322Z,64.39
2023-02-21T21:59:58.372Z,64.58
2023-02-21T22:02:26.248Z,65.74
2023-02-21T22:04:54.676Z,64.72
2023-02-21T22:07:23.029Z,64.82
2023-02-21T22:09:52.571Z,64.48
2023-02-21T22:12:21.082Z,64.50
2023-02-21T22:14:50.022Z,64.93
2023-02-21T22:17:18.985Z,64.55
2023-02-21T22:19:50.619Z,63.93
2023-02-21T22:22:18.597Z,64.24
2023-02-21T22:24:46.230Z,64.50
2023-02-21T22:27:14.879Z,64.58
2023-02-21T22:29:42.916Z,64.45
2023-02-21T22:32:10.542Z,64.34
2023-02-21T22:34:38.636Z,64.64
2023-02-21T22:37:06.293Z,65.16
2023-02-21T22:39:34.165Z,64.54
2023-02-21T22:42:05.348Z,64.08
2023-02-21T22:44:33.013Z,63.96
2023-02-21T22:47:00.574Z,63.74
2023-02-21T22:49:30.699Z,63.74
2023-02-21T22:52:03.730Z,63.76
2023-02-21T22:54:31.773Z,64.41
2023-02-21T22:57:04.069Z,64.51
2023-02-21T22:59:35.369Z,65.21
2023-02-21T23:02:03.749Z,65.60
2023-02-21T23:04:37.493Z,65.75
2023-02-21T23:07:05.876Z,66.77
2023-02-21T23:09:37.169Z,66.26
2023-02-21T23:12:05.945Z,65.25
2023-02-21T23:14:35.204Z,65.54
2023-02-21T23:17:03.233Z,65.65
2023-02-21T23:19:32.267Z,65.25
2023-02-21T23:22:01.450Z,65.18
2023-02-21T23:24:29.192Z,65.60
2023-02-21T23:26:56.763Z,65.60
2023-02-21T23:29:26.260Z,66.32
2023-02-21T23:32:09.428Z,66.81
2023-02-21T23:34:41.191Z,66.63
2023-02-21T23:37:12.396Z,66.75
2023-02-21T23:39:42.250Z,68.49
2023-02-21T23:42:11.102Z,66.50
2023-02-21T23:44:39.305Z,66.75
2023-02-21T23:47:07.179Z,67.39
2023-02-21T23:49:34.851Z,68.03
2023-02-21T23:52:04.079Z,68.16
2023-02-21T23:54:31.984Z,67.05
2023-02-21T23:57:00.702Z,66.34
2023-02-21T23:59:29.082Z,67.64
